Time;durP1;ratioP1;P1;durP2;ratioP2;P2;SDS_P1;SDS_P2;PMS_P1;PMS_P2;Temp;Humidity;BMP_temperature;BMP_pressure;BME280_temperature;BME280_humidity;BME280_pressure;Samples;Min_cycle;Max_cycle;Signal;HPM_P1;HPM_P2
2022/08/03 00:00:54;;;;;;;4.50;4.20;;;20.30;99.90;;;;;;5004485;28;20893;-79
2022/08/03 00:03:22;;;;;;;3.67;3.40;;;20.30;99.90;;;;;;4998831;28;20456;-79
2022/08/03 00:05:48;;;;;;;4.40;3.60;;;20.30;99.90;;;;;;4998089;28;20506;-79
2022/08/03 00:08:15;;;;;;;3.80;3.50;;;20.30;99.90;;;;;;5004573;28;20491;-79
2022/08/03 00:10:42;;;;;;;3.70;3.33;;;20.30;99.90;;;;;;5001242;28;20540;-79
2022/08/03 00:13:11;;;;;;;3.80;3.50;;;20.30;99.90;;;;;;5001936;28;20950;-79
2022/08/03 00:15:39;;;;;;;4.33;3.47;;;20.20;99.90;;;;;;5003198;28;20462;-79
2022/08/03 00:18:05;;;;;;;5.73;3.47;;;20.20;99.90;;;;;;5000932;28;20462;-79
2022/08/03 00:20:34;;;;;;;5.20;3.87;;;20.20;99.90;;;;;;4996566;28;20530;-79
2022/08/03 00:23:00;;;;;;;5.77;4.00;;;20.10;99.90;;;;;;4999342;28;20458;-79
2022/08/03 00:25:27;;;;;;;8.23;4.53;;;20.10;99.90;;;;;;4995491;28;20451;-78
2022/08/03 00:27:54;;;;;;;6.17;4.30;;;20.00;99.90;;;;;;5003540;28;20467;-78
2022/08/03 00:30:20;;;;;;;5.73;4.40;;;20.10;99.90;;;;;;4996373;28;20457;-79
2022/08/03 00:32:47;;;;;;;4.40;4.00;;;19.90;99.90;;;;;;5004324;28;20437;-79
2022/08/03 00:35:14;;;;;;;4.13;3.80;;;19.90;99.90;;;;;;4996889;28;20933;-79
2022/08/03 00:37:42;;;;;;;5.23;4.23;;;19.80;99.90;;;;;;4994812;28;20429;-79
2022/08/03 00:40:11;;;;;;;5.20;4.40;;;19.80;99.90;;;;;;4998526;28;20488;-79
2022/08/03 00:42:50;;;;;;;4.30;3.90;;;19.80;99.90;;;;;;5002767;28;20454;-79
2022/08/03 00:45:17;;;;;;;8.10;4.57;;;19.80;99.90;;;;;;4999301;28;20455;-79
2022/08/03 00:47:44;;;;;;;8.43;4.37;;;19.70;99.90;;;;;;5006781;28;20430;-79
2022/08/03 00:50:11;;;;;;;6.00;4.43;;;19.70;99.90;;;;;;5002942;28;20507;-79
2022/08/03 00:52:38;;;;;;;4.20;3.80;;;19.60;99.90;;;;;;4995643;28;20428;-79
2022/08/03 00:55:07;;;;;;;5.97;4.20;;;19.60;99.90;;;;;;4999891;28;20451;-79
2022/08/03 00:57:33;;;;;;;5.70;4.00;;;19.50;99.90;;;;;;4995920;28;20447;-79
2022/08/03 01:00:00;;;;;;;4.60;4.20;;;19.50;99.90;;;;;;4997324;28;20456;-78
2022/08/03 01:02:27;;;;;;;4.00;3.70;;;19.50;99.90;;;;;;4994798;28;20425;-79
2022/08/03 01:04:54;;;;;;;4.30;3.93;;;19.50;99.90;;;;;;4994682;28;20861;-78
2022/08/03 01:07:30;;;;;;;4.07;3.77;;;19.40;99.90;;;;;;5003018;28;20446;-79
2022/08/03 01:10:02;;;;;;;4.63;3.70;;;19.40;99.90;;;;;;4995988;28;20533;-79
2022/08/03 01:12:37;;;;;;;3.50;3.30;;;19.40;99.90;;;;;;5000456;28;20463;-79
2022/08/03 01:15:10;;;;;;;6.73;3.63;;;19.40;99.90;;;;;;5000866;28;20432;-79
2022/08/03 01:17:43;;;;;;;5.70;4.00;;;19.30;99.90;;;;;;5000462;28;20448;-78
2022/08/03 01:20:13;;;;;;;3.70;3.40;;;19.30;99.90;;;;;;5006201;28;20470;-79
2022/08/03 01:23:06;;;;;;;4.00;3.70;;;19.40;99.90;;;;;;5001951;28;20854;-79
2022/08/03 01:25:46;;;;;;;4.07;3.77;;;19.30;99.90;;;;;;5004884;28;20429;-79
2022/08/03 01:28:33;;;;;;;5.30;4.53;;;19.30;99.90;;;;;;4995846;28;20818;-79
2022/08/03 01:31:06;;;;;;;5.60;5.10;;;19.20;99.90;;;;;;4995866;28;20485;-79
2022/08/03 01:33:36;;;;;;;7.60;5.00;;;19.10;99.90;;;;;;5002844;28;20968;-78
2022/08/03 01:36:06;;;;;;;4.80;4.40;;;18.90;99.90;;;;;;5001464;28;20517;-79
2022/08/03 01:38:34;;;;;;;5.80;4.87;;;18.90;99.90;;;;;;4996681;28;20478;-78
2022/08/03 01:41:05;;;;;;;5.17;4.67;;;18.80;99.90;;;;;;4998437;28;20467;-79
2022/08/03 01:43:32;;;;;;;10.77;4.10;;;18.90;99.90;;;;;;5004832;28;20505;-79
2022/08/03 01:46:01;;;;;;;6.53;4.20;;;18.80;99.90;;;;;;4999379;28;20544;-79
2022/08/03 01:48:28;;;;;;;5.20;4.70;;;18.90;99.90;;;;;;5002834;28;20437;-79
2022/08/03 01:50:56;;;;;;;11.33;4.40;;;18.80;99.90;;;;;;4995268;28;20461;-78
2022/08/03 01:53:24;;;;;;;5.80;4.30;;;18.80;99.90;;;;;;4995834;28;20425;-79
2022/08/03 01:55:55;;;;;;;5.00;4.00;;;18.80;99.90;;;;;;5006390;28;20802;-79
2022/08/03 01:58:24;;;;;;;4.93;4.00;;;18.90;99.90;;;;;;5002600;28;20502;-78
2022/08/03 02:00:52;;;;;;;4.70;4.27;;;18.70;99.90;;;;;;4997945;28;20467;-79
2022/08/03 02:03:21;;;;;;;7.03;4.63;;;18.70;99.90;;;;;;4995580;28;20447;-79
2022/08/03 02:05:49;;;;;;;11.93;4.00;;;18.60;99.90;;;;;;4997677;28;20459;-79
2022/08/03 02:08:18;;;;;;;4.60;4.20;;;18.50;99.90;;;;;;5000425;28;20933;-79
2022/08/03 02:10:46;;;;;;;5.07;3.87;;;18.50;99.90;;;;;;4994780;28;20532;-78
2022/08/03 02:13:14;;;;;;;4.57;3.80;;;18.50;99.90;;;;;;4998939;28;20451;-79
2022/08/03 02:15:43;;;;;;;4.20;3.90;;;18.50;99.90;;;;;;4992664;28;20436;-79
2022/08/03 02:18:10;;;;;;;4.30;3.90;;;18.40;99.90;;;;;;5003509;28;20457;-79
2022/08/03 02:20:42;;;;;;;4.63;4.23;;;18.40;99.90;;;;;;4996224;28;20445;-78
2022/08/03 02:23:09;;;;;;;3.97;3.67;;;18.30;99.90;;;;;;4998556;28;20480;-79
2022/08/03 02:25:41;;;;;;;4.17;3.87;;;18.30;99.90;;;;;;5001152;28;20576;-79
2022/08/03 02:28:12;;;;;;;7.23;4.03;;;18.30;99.90;;;;;;5002011;28;20471;-78
2022/08/03 02:30:42;;;;;;;4.47;4.10;;;18.30;99.90;;;;;;4993318;28;20458;-79
2022/08/03 02:33:17;;;;;;;6.70;4.43;;;18.30;99.90;;;;;;4993225;28;20951;-79
2022/08/03 02:35:48;;;;;;;4.30;4.00;;;18.30;99.90;;;;;;5002481;28;20520;-79
2022/08/03 02:38:16;;;;;;;4.80;4.40;;;18.20;99.90;;;;;;4998288;28;20856;-79
2022/08/03 02:40:45;;;;;;;4.67;4.27;;;18.20;99.90;;;;;;4999485;28;20521;-79
2022/08/03 02:43:19;;;;;;;7.17;4.30;;;18.20;99.90;;;;;;5004848;28;20500;-79
2022/08/03 02:45:49;;;;;;;4.30;4.00;;;18.20;99.90;;;;;;5004449;28;21028;-79
2022/08/03 02:48:18;;;;;;;5.00;4.23;;;18.20;99.90;;;;;;5003789;28;20454;-79
2022/08/03 02:50:48;;;;;;;4.40;4.00;;;18.10;99.90;;;;;;4998093;28;20468;-78
2022/08/03 02:53:17;;;;;;;4.93;4.00;;;18.10;99.90;;;;;;4999244;28;20498;-79
2022/08/03 02:55:46;;;;;;;4.43;4.13;;;18.10;99.90;;;;;;5002140;28;20434;-79
2022/08/03 02:58:17;;;;;;;4.57;4.10;;;18.10;99.90;;;;;;5002888;28;20512;-79
2022/08/03 03:00:44;;;;;;;4.27;3.93;;;18.00;99.90;;;;;;4996599;28;20471;-79
2022/08/03 03:03:11;;;;;;;6.87;5.10;;;18.00;99.90;;;;;;5000058;28;20433;-79
2022/08/03 03:05:40;;;;;;;5.07;4.57;;;18.00;99.90;;;;;;4997744;28;20487;-79
2022/08/03 03:08:09;;;;;;;5.67;5.17;;;17.90;99.90;;;;;;4999467;28;20482;-78
2022/08/03 03:10:37;;;;;;;5.23;4.73;;;17.90;99.90;;;;;;4998275;28;20869;-78
2022/08/03 03:13:04;;;;;;;5.53;4.70;;;17.90;99.90;;;;;;5007466;28;20499;-79
2022/08/03 03:15:34;;;;;;;5.90;4.33;;;17.90;99.90;;;;;;5002796;28;20933;-78
2022/08/03 03:18:02;;;;;;;4.47;4.03;;;17.90;99.90;;;;;;5001117;28;20465;-79
2022/08/03 03:20:31;;;;;;;5.50;4.80;;;17.80;99.90;;;;;;4996967;28;20449;-79
2022/08/03 03:22:59;;;;;;;8.57;5.10;;;17.90;99.90;;;;;;4997873;28;20437;-78
2022/08/03 03:25:28;;;;;;;5.80;4.77;;;17.80;99.90;;;;;;5001966;28;20480;-79
2022/08/03 03:27:55;;;;;;;5.00;4.60;;;17.80;99.90;;;;;;4998015;28;20999;-78
2022/08/03 03:30:22;;;;;;;9.07;5.20;;;17.80;99.90;;;;;;5000632;28;20457;-78
2022/08/03 03:32:49;;;;;;;5.00;4.47;;;17.80;99.90;;;;;;5006749;28;20434;-79
2022/08/03 03:35:16;;;;;;;7.30;5.60;;;17.70;99.90;;;;;;5003322;28;20483;-79
2022/08/03 03:37:43;;;;;;;5.60;5.10;;;17.70;99.90;;;;;;5005518;28;20472;-79
2022/08/03 03:40:11;;;;;;;5.37;4.80;;;17.70;99.90;;;;;;5002359;28;20861;-79
2022/08/03 03:42:39;;;;;;;5.27;4.77;;;17.70;99.90;;;;;;4997339;28;20455;-79
2022/08/03 03:45:07;;;;;;;5.50;4.67;;;17.70;99.90;;;;;;4995947;28;20422;-78
2022/08/03 03:47:35;;;;;;;7.87;4.83;;;17.70;99.90;;;;;;5006737;28;20450;-79
2022/08/03 03:50:02;;;;;;;6.03;5.03;;;17.60;99.90;;;;;;5000916;28;20453;-79
2022/08/03 03:52:29;;;;;;;8.17;5.40;;;17.60;99.90;;;;;;4999211;28;21855;-79
2022/08/03 03:54:56;;;;;;;6.17;5.20;;;17.60;99.90;;;;;;5007207;28;20437;-80
2022/08/03 03:57:23;;;;;;;6.20;4.60;;;17.60;99.90;;;;;;4998006;28;20426;-80
2022/08/03 03:59:51;;;;;;;6.33;4.70;;;17.60;99.90;;;;;;4995638;28;20465;-79
2022/08/03 04:02:17;;;;;;;7.20;5.13;;;17.60;99.90;;;;;;5000510;28;20450;-79
2022/08/03 04:13:10;;;;;;;5.20;4.70;;;17.60;99.90;;;;;;5004993;28;20412;-80
2022/08/03 04:15:41;;;;;;;6.03;5.00;;;17.50;99.90;;;;;;5002114;28;20426;-79
2022/08/03 04:18:12;;;;;;;5.60;5.10;;;17.50;99.90;;;;;;5000765;28;20941;-79
2022/08/03 04:20:40;;;;;;;6.10;4.50;;;17.50;99.90;;;;;;5004918;28;20499;-80
2022/08/03 04:23:08;;;;;;;6.43;5.50;;;17.50;99.90;;;;;;4997061;28;20781;-80
2022/08/03 04:25:36;;;;;;;4.97;4.57;;;17.50;99.90;;;;;;4999063;28;20428;-80
2022/08/03 04:28:04;;;;;;;7.13;5.07;;;17.50;99.90;;;;;;5002681;28;20426;-79
2022/08/03 04:30:33;;;;;;;5.80;4.47;;;17.50;99.90;;;;;;5011520;28;20469;-80
2022/08/03 04:33:02;;;;;;;5.40;4.90;;;17.50;99.90;;;;;;5008972;28;20437;-80
2022/08/03 04:35:32;;;;;;;5.30;4.80;;;17.50;99.90;;;;;;5009596;28;20953;-80
2022/08/03 04:38:05;;;;;;;5.53;5.03;;;17.50;99.90;;;;;;5010240;28;20473;-80
2022/08/03 04:40:35;;;;;;;17.63;5.53;;;17.70;99.90;;;;;;5006902;28;20471;-81
2022/08/03 04:43:02;;;;;;;6.70;5.30;;;17.50;99.90;;;;;;5014115;28;20928;-82
2022/08/03 04:45:31;;;;;;;5.87;4.80;;;17.50;99.90;;;;;;5008515;28;20492;-80
2022/08/03 04:47:59;;;;;;;7.33;5.20;;;17.50;99.90;;;;;;5010389;28;20448;-80
2022/08/03 04:50:27;;;;;;;7.10;4.70;;;17.50;99.90;;;;;;5008376;28;20509;-81
2022/08/03 04:52:55;;;;;;;15.90;4.70;;;17.50;99.90;;;;;;5002195;28;20515;-76
2022/08/03 04:55:28;;;;;;;6.30;3.60;;;17.60;99.90;;;;;;5000773;28;20513;-76
2022/08/03 04:57:55;;;;;;;9.07;4.93;;;17.70;99.90;;;;;;4994336;28;20429;-76
2022/08/03 05:00:22;;;;;;;8.67;5.10;;;17.90;99.90;;;;;;4995039;28;20467;-76
2022/08/03 05:02:49;;;;;;;7.67;5.63;;;18.00;99.90;;;;;;4995468;28;20482;-76
2022/08/03 05:05:16;;;;;;;5.70;5.20;;;18.10;99.90;;;;;;5004328;28;20851;-76
2022/08/03 05:07:44;;;;;;;11.83;5.90;;;18.20;99.90;;;;;;4999325;28;20946;-76
2022/08/03 05:10:12;;;;;;;6.73;5.00;;;18.30;99.90;;;;;;4998598;28;20491;-76
2022/08/03 05:12:39;;;;;;;13.30;5.83;;;18.40;99.90;;;;;;5001462;28;20500;-77
2022/08/03 05:15:07;;;;;;;8.27;5.87;;;18.60;99.90;;;;;;5002700;28;20425;-76
2022/08/03 05:17:33;;;;;;;7.27;4.50;;;18.70;99.90;;;;;;5003416;28;20425;-76
2022/08/03 05:20:01;;;;;;;7.30;5.30;;;18.80;99.90;;;;;;5002328;28;20446;-77
2022/08/03 05:22:28;;;;;;;5.63;5.13;;;19.00;99.90;;;;;;4997431;28;20831;-75
2022/08/03 05:24:56;;;;;;;10.03;5.10;;;19.10;99.90;;;;;;4999261;28;20852;-75
2022/08/03 05:27:23;;;;;;;12.80;5.07;;;19.30;99.90;;;;;;4996601;28;20454;-76
2022/08/03 05:29:50;;;;;;;15.97;5.17;;;19.40;99.90;;;;;;5000409;28;20458;-75
2022/08/03 05:32:17;;;;;;;16.63;5.90;;;19.40;99.90;;;;;;4998295;28;20540;-73
2022/08/03 05:34:44;;;;;;;8.57;4.70;;;19.50;99.90;;;;;;5000577;28;20429;-75
2022/08/03 05:37:11;;;;;;;8.10;5.23;;;19.70;99.90;;;;;;4997817;28;20426;-76
2022/08/03 05:39:38;;;;;;;9.57;6.20;;;19.90;99.90;;;;;;4999406;28;20454;-78
2022/08/03 05:42:06;;;;;;;9.93;6.57;;;20.10;99.90;;;;;;4997384;28;20510;-77
2022/08/03 05:44:33;;;;;;;14.63;5.90;;;20.20;99.90;;;;;;4989365;28;20451;-77
2022/08/03 05:47:00;;;;;;;8.70;5.37;;;20.30;99.90;;;;;;4988698;28;20830;-77
2022/08/03 05:49:26;;;;;;;16.97;5.90;;;20.40;99.90;;;;;;4989633;28;20830;-77
2022/08/03 05:51:53;;;;;;;13.67;5.70;;;20.70;99.90;;;;;;4989573;28;20490;-77
2022/08/03 05:54:19;;;;;;;8.10;5.70;;;20.60;99.90;;;;;;4990056;28;20883;-77
2022/08/03 05:56:46;;;;;;;12.17;7.20;;;20.90;99.90;;;;;;4989665;28;20844;-77
2022/08/03 05:59:14;;;;;;;10.70;6.10;;;21.00;99.90;;;;;;4992394;28;20507;-77
2022/08/03 06:01:41;;;;;;;7.83;5.50;;;21.10;99.90;;;;;;4992772;28;20488;-77
2022/08/03 06:04:07;;;;;;;6.33;5.80;;;21.30;99.90;;;;;;4992143;28;20455;-76
2022/08/03 06:06:34;;;;;;;7.83;5.73;;;21.40;99.90;;;;;;4992045;28;20948;-77
2022/08/03 06:09:00;;;;;;;9.77;5.10;;;21.60;99.90;;;;;;4998338;28;20450;-77
2022/08/03 06:11:27;;;;;;;7.17;5.63;;;21.70;99.90;;;;;;5011089;28;21171;-77
2022/08/03 06:13:54;;;;;;;6.43;5.23;;;21.90;99.90;;;;;;5011422;28;20965;-77
2022/08/03 06:16:22;;;;;;;5.00;4.50;;;22.10;99.90;;;;;;5011797;28;20500;-77
2022/08/03 06:18:48;;;;;;;9.73;5.00;;;22.30;99.90;;;;;;5011903;28;20454;-77
2022/08/03 06:21:15;;;;;;;9.63;4.80;;;22.50;99.90;;;;;;5015074;28;20472;-76
2022/08/03 06:23:46;;;;;;;6.57;5.13;;;22.70;99.90;;;;;;5015104;28;20446;-77
2022/08/03 06:26:13;;;;;;;9.90;5.03;;;23.00;99.90;;;;;;5015211;28;20450;-76
2022/08/03 06:28:40;;;;;;;6.50;5.27;;;23.10;99.90;;;;;;5015112;28;20861;-76
2022/08/03 06:31:06;;;;;;;10.37;5.37;;;23.30;99.90;;;;;;5014753;28;20501;-76
2022/08/03 06:33:34;;;;;;;20.27;6.07;;;23.60;99.90;;;;;;5015426;28;20512;-76
2022/08/03 06:36:01;;;;;;;6.00;5.13;;;23.80;99.90;;;;;;5015093;28;20454;-77
2022/08/03 06:38:28;;;;;;;8.40;5.17;;;23.80;99.90;;;;;;5014719;28;20434;-77
2022/08/03 06:40:54;;;;;;;6.30;5.03;;;23.80;99.90;;;;;;5014848;28;20899;-77
2022/08/03 06:43:21;;;;;;;5.00;4.50;;;23.80;99.90;;;;;;5014951;28;20450;-77
2022/08/03 06:45:47;;;;;;;7.00;4.30;;;23.80;99.90;;;;;;5014869;28;20504;-76
2022/08/03 06:48:14;;;;;;;5.00;4.60;;;23.80;99.90;;;;;;5015206;28;20786;-76
2022/08/03 06:50:43;;;;;;;7.53;5.83;;;23.80;99.90;;;;;;5014774;28;20470;-76
2022/08/03 06:53:10;;;;;;;9.10;6.17;;;23.70;99.90;;;;;;5014439;28;20458;-76
2022/08/03 06:55:37;;;;;;;9.27;6.63;;;23.80;99.90;;;;;;5014421;28;20504;-77
2022/08/03 06:58:04;;;;;;;10.80;6.53;;;23.80;99.90;;;;;;5014775;28;20504;-77
2022/08/03 07:00:30;;;;;;;9.80;7.33;;;23.90;99.90;;;;;;5014493;28;20974;-76
2022/08/03 07:02:57;;;;;;;12.80;7.07;;;23.70;99.90;;;;;;5014560;28;20446;-76
2022/08/03 07:05:24;;;;;;;7.87;7.07;;;23.60;99.90;;;;;;5014288;28;21025;-76
2022/08/03 07:07:55;;;;;;;8.50;7.23;;;23.80;99.90;;;;;;5014628;28;20477;-76
2022/08/03 07:10:22;;;;;;;7.80;7.00;;;24.10;99.90;;;;;;5013819;28;20476;-76
2022/08/03 07:12:48;;;;;;;7.60;6.57;;;24.20;99.90;;;;;;5014312;28;21014;-76
2022/08/03 07:15:17;;;;;;;11.53;7.27;;;24.40;99.90;;;;;;5014330;28;20876;-76
2022/08/03 07:17:43;;;;;;;11.73;6.40;;;24.60;99.90;;;;;;5014402;28;20454;-77
2022/08/03 07:20:12;;;;;;;7.20;5.67;;;25.00;99.90;;;;;;5013535;28;20486;-76
2022/08/03 07:22:38;;;;;;;11.07;5.43;;;25.30;99.90;;;;;;5014076;28;20962;-76
2022/08/03 07:25:07;;;;;;;7.10;5.53;;;25.20;99.90;;;;;;5014172;28;20460;-77
2022/08/03 07:27:34;;;;;;;5.37;4.87;;;25.20;99.90;;;;;;5014083;28;20454;-76
2022/08/03 07:30:01;;;;;;;6.77;6.27;;;25.40;99.90;;;;;;5013542;28;20450;-76
2022/08/03 07:32:30;;;;;;;6.73;5.97;;;25.50;99.90;;;;;;5013451;28;20482;-76
2022/08/03 07:34:56;;;;;;;8.23;6.13;;;25.50;99.90;;;;;;5014122;28;20466;-76
2022/08/03 07:37:23;;;;;;;6.03;5.47;;;25.50;99.90;;;;;;5014031;28;20446;-77
2022/08/03 07:39:50;;;;;;;7.00;6.30;;;25.50;99.90;;;;;;5013866;28;20458;-77
2022/08/03 07:42:17;;;;;;;5.93;5.30;;;25.70;99.90;;;;;;5013663;28;20496;-76
2022/08/03 07:44:44;;;;;;;8.77;5.93;;;26.00;99.90;;;;;;5013717;28;20439;-77
2022/08/03 07:47:11;;;;;;;7.90;5.60;;;26.20;99.90;;;;;;5013488;28;20458;-77
2022/08/03 07:49:41;;;;;;;8.20;5.60;;;26.20;99.90;;;;;;5013695;28;20512;-77
2022/08/03 07:54:52;;;;;;;9.13;5.50;;;26.30;99.90;;;;;;5013473;28;20430;-76
2022/08/03 07:57:20;;;;;;;9.27;6.80;;;26.50;99.90;;;;;;5013474;28;20458;-76
2022/08/03 07:59:47;;;;;;;10.90;5.30;;;26.70;99.90;;;;;;5013235;28;20454;-76
2022/08/03 08:02:14;;;;;;;6.00;5.20;;;26.80;99.90;;;;;;5013271;28;20466;-76
2022/08/03 08:04:40;;;;;;;7.30;4.83;;;27.10;99.90;;;;;;5013360;28;20441;-77
2022/08/03 08:07:07;;;;;;;8.23;4.43;;;27.30;99.90;;;;;;5013228;28;20454;-76
2022/08/03 08:09:34;;;;;;;12.57;5.07;;;27.60;99.90;;;;;;5013233;28;20505;-77
2022/08/03 08:12:01;;;;;;;10.67;4.57;;;27.80;99.90;;;;;;5012593;28;21022;-77
2022/08/03 08:14:29;;;;;;;10.77;5.53;;;28.00;99.90;;;;;;5013221;28;20454;-76
2022/08/03 08:16:56;;;;;;;10.17;5.50;;;28.00;99.90;;;;;;5013158;28;20541;-76
2022/08/03 08:19:22;;;;;;;10.70;5.70;;;28.20;99.90;;;;;;5013079;28;20585;-76
2022/08/03 08:21:49;;;;;;;15.00;6.00;;;28.50;99.90;;;;;;5012817;28;21061;-76
2022/08/03 08:24:16;;;;;;;6.17;5.50;;;28.70;99.90;;;;;;5012953;28;20837;-76
2022/08/03 08:26:42;;;;;;;7.80;5.40;;;28.60;99.90;;;;;;5012758;28;20454;-76
2022/08/03 08:29:09;;;;;;;8.63;4.17;;;28.80;99.90;;;;;;5013093;28;20446;-76
2022/08/03 08:31:37;;;;;;;7.17;5.37;;;28.80;99.90;;;;;;5012524;28;20486;-76
2022/08/03 08:34:06;;;;;;;6.13;4.70;;;29.00;99.90;;;;;;5013068;28;20496;-76
2022/08/03 08:36:33;;;;;;;4.63;4.23;;;29.10;99.90;;;;;;5012821;28;20902;-76
2022/08/03 08:38:59;;;;;;;6.00;3.70;;;29.20;99.90;;;;;;5012743;28;20450;-76
2022/08/03 08:41:26;;;;;;;6.57;3.67;;;29.40;99.90;;;;;;5011399;28;20485;-76
2022/08/03 08:43:54;;;;;;;4.77;3.23;;;29.40;99.90;;;;;;5012770;28;20501;-76
2022/08/03 08:46:21;;;;;;;4.50;3.27;;;29.50;99.90;;;;;;5012976;28;20446;-76
2022/08/03 08:48:51;;;;;;;6.70;3.57;;;29.80;99.90;;;;;;5012534;28;20458;-77
2022/08/03 08:51:20;;;;;;;5.07;3.60;;;30.00;99.90;;;;;;5011955;28;20533;-77
2022/08/03 08:53:51;;;;;;;5.20;2.87;;;30.40;99.90;;;;;;5012367;28;20446;-76
2022/08/03 08:56:20;;;;;;;6.50;3.00;;;30.60;99.10;;;;;;5012656;28;20516;-76
2022/08/03 08:58:49;;;;;;;10.53;2.83;;;30.60;98.50;;;;;;5012542;28;20505;-76
2022/08/03 09:01:18;;;;;;;3.60;2.63;;;30.50;97.90;;;;;;5012245;28;20978;-76
2022/08/03 09:03:45;;;;;;;2.90;2.37;;;30.50;98.00;;;;;;5012406;28;20809;-76
2022/08/03 09:06:13;;;;;;;5.07;3.00;;;30.80;98.20;;;;;;5012115;28;20502;-76
2022/08/03 09:08:40;;;;;;;5.00;3.10;;;31.00;98.00;;;;;;5012029;28;20884;-76
2022/08/03 09:11:07;;;;;;;4.00;2.50;;;31.10;96.40;;;;;;5012091;28;20552;-76
2022/08/03 09:13:34;;;;;;;4.83;2.97;;;30.90;96.50;;;;;;5012311;28;20532;-76
2022/08/03 09:16:14;;;;;;;3.27;2.97;;;30.60;96.20;;;;;;5012239;28;20458;-76
2022/08/03 09:18:42;;;;;;;10.53;2.67;;;30.70;96.60;;;;;;5011845;28;20454;-76
2022/08/03 09:21:22;;;;;;;2.60;2.40;;;30.90;95.20;;;;;;5011582;28;20528;-76
2022/08/03 09:23:50;;;;;;;3.03;2.70;;;30.90;94.70;;;;;;5012129;28;20895;-76
2022/08/03 09:26:21;;;;;;;2.97;2.70;;;30.90;94.60;;;;;;5011895;28;20501;-77
2022/08/03 09:28:56;;;;;;;2.70;2.50;;;30.90;94.60;;;;;;5011836;28;20545;-76
2022/08/03 09:31:31;;;;;;;2.90;2.60;;;31.00;93.90;;;;;;5011239;28;20899;-76
2022/08/03 09:33:59;;;;;;;2.30;2.20;;;31.00;93.50;;;;;;5012041;28;20453;-77
2022/08/03 09:36:38;;;;;;;6.53;2.50;;;31.20;94.20;;;;;;5012242;28;20454;-76
2022/08/03 09:39:09;;;;;;;2.63;2.40;;;31.40;93.70;;;;;;5012091;28;20869;-76
2022/08/03 09:41:36;;;;;;;12.83;2.60;;;31.50;92.70;;;;;;5011393;28;20513;-76
2022/08/03 09:44:03;;;;;;;3.10;2.37;;;31.40;93.00;;;;;;5011905;28;20458;-76
2022/08/03 09:46:32;;;;;;;2.37;2.27;;;31.10;92.50;;;;;;5011891;28;20446;-76
2022/08/03 09:49:12;;;;;;;6.50;2.63;;;31.10;93.20;;;;;;5011798;28;20465;-76
2022/08/03 09:51:40;;;;;;;4.90;2.50;;;31.40;92.60;;;;;;5011224;28;20470;-76
2022/08/03 09:54:07;;;;;;;3.30;2.17;;;31.40;92.20;;;;;;5014277;28;20454;-76
2022/08/03 09:56:42;;;;;;;4.40;2.63;;;31.60;92.80;;;;;;5015909;28;20458;-76
2022/08/03 09:59:09;;;;;;;4.37;2.40;;;32.00;92.30;;;;;;5015803;28;20869;-76
2022/08/03 10:01:37;;;;;;;2.50;2.30;;;32.10;91.30;;;;;;5015475;28;20458;-76
2022/08/03 10:04:04;;;;;;;2.47;2.20;;;32.10;91.40;;;;;;5015656;28;20453;-76
2022/08/03 10:06:31;;;;;;;2.63;2.43;;;32.20;90.90;;;;;;5015595;28;20450;-76
2022/08/03 10:09:11;;;;;;;2.57;2.37;;;32.10;91.00;;;;;;5015145;28;20449;-76
2022/08/03 10:11:39;;;;;;;2.60;2.50;;;32.20;91.30;;;;;;5015444;28;20477;-76
2022/08/03 10:14:07;;;;;;;2.33;2.13;;;32.30;90.70;;;;;;5015442;28;20572;-76
2022/08/03 10:16:36;;;;;;;2.40;2.07;;;32.30;90.50;;;;;;5015437;28;20889;-76
2022/08/03 10:19:04;;;;;;;4.80;2.20;;;32.40;90.40;;;;;;5014915;28;20487;-76
2022/08/03 10:21:34;;;;;;;3.83;2.50;;;32.40;90.80;;;;;;5014921;28;21047;-76
2022/08/03 10:24:03;;;;;;;2.23;2.10;;;32.60;90.30;;;;;;5015295;28;20488;-76
2022/08/03 10:26:34;;;;;;;4.70;2.30;;;32.40;90.40;;;;;;5015324;28;20456;-76
2022/08/03 10:29:04;;;;;;;3.60;2.37;;;32.30;90.30;;;;;;5015076;28;20442;-77
2022/08/03 10:31:35;;;;;;;3.63;2.70;;;32.30;90.10;;;;;;5014849;28;20474;-76
2022/08/03 10:34:04;;;;;;;2.40;2.07;;;32.20;89.90;;;;;;5015152;28;20459;-76
2022/08/03 10:36:33;;;;;;;2.20;2.10;;;32.40;90.30;;;;;;5015324;28;20878;-75
2022/08/03 10:39:01;;;;;;;3.93;2.20;;;32.50;89.60;;;;;;5015013;28;20454;-76
2022/08/03 10:41:39;;;;;;;2.63;2.40;;;32.40;89.20;;;;;;5014656;28;20982;-75
2022/08/03 10:44:09;;;;;;;6.23;2.50;;;32.40;88.80;;;;;;5015243;28;20453;-76
2022/08/03 10:46:39;;;;;;;5.70;2.30;;;32.40;89.30;;;;;;5014814;28;20875;-76
2022/08/03 10:49:06;;;;;;;2.57;2.47;;;32.40;89.90;;;;;;5014723;28;20450;-76
2022/08/03 10:51:34;;;;;;;3.90;2.70;;;32.40;89.30;;;;;;5014460;28;20524;-76
2022/08/03 10:54:00;;;;;;;2.70;2.50;;;32.50;89.50;;;;;;5014537;28;20573;-76
2022/08/03 10:59:59;;;;;;;3.47;2.10;;;32.70;89.60;;;;;;5014675;28;20961;-75
2022/08/03 11:02:59;;;;;;;2.20;2.10;;;33.00;86.80;;;;;;5014428;28;20488;-76
2022/08/03 11:05:27;;;;;;;2.73;2.53;;;33.00;87.20;;;;;;5013426;28;20553;-76
2022/08/03 11:08:28;;;;;;;2.33;2.10;;;33.10;86.40;;;;;;5014498;28;20512;-76
2022/08/03 11:10:57;;;;;;;3.40;2.00;;;33.10;86.40;;;;;;4994495;28;20471;-76
2022/08/03 11:13:29;;;;;;;2.30;2.17;;;33.00;85.70;;;;;;4994538;28;20487;-76
2022/08/03 11:15:58;;;;;;;2.03;1.93;;;33.00;86.50;;;;;;4994849;28;20549;-76
2022/08/03 11:18:26;;;;;;;2.70;2.50;;;33.00;86.50;;;;;;4994696;28;20447;-76
2022/08/03 11:20:54;;;;;;;4.90;2.20;;;32.90;86.20;;;;;;4994124;28;20482;-76
2022/08/03 11:23:44;;;;;;;2.50;2.30;;;32.90;86.20;;;;;;4994573;28;20456;-76
2022/08/03 11:26:12;;;;;;;2.50;2.30;;;32.80;86.30;;;;;;4994731;28;20459;-76
2022/08/03 11:28:42;;;;;;;4.17;2.33;;;32.90;86.90;;;;;;5007222;28;20454;-76
2022/08/03 11:31:57;;;;;;;2.80;2.43;;;33.10;85.60;;;;;;5013690;28;20470;-76
2022/08/03 11:34:24;;;;;;;2.40;2.20;;;33.00;85.40;;;;;;5013785;28;20450;-76
2022/08/03 11:37:20;;;;;;;2.40;2.30;;;33.10;85.20;;;;;;5013988;28;20446;-76
2022/08/03 11:39:48;;;;;;;2.70;2.47;;;33.10;85.40;;;;;;5013841;28;20568;-76
2022/08/03 11:42:44;;;;;;;2.20;2.10;;;33.20;84.80;;;;;;5013477;28;20523;-76
2022/08/03 11:45:13;;;;;;;2.03;1.93;;;33.30;85.00;;;;;;5013843;28;20509;-76
2022/08/03 11:47:42;;;;;;;7.03;2.63;;;33.40;84.50;;;;;;5013707;28;20450;-76
2022/08/03 11:50:10;;;;;;;6.57;2.53;;;33.30;84.70;;;;;;5013448;28;20504;-76
2022/08/03 11:52:41;;;;;;;4.17;2.23;;;33.50;84.30;;;;;;5013546;28;20498;-76
2022/08/03 11:55:13;;;;;;;2.40;2.10;;;33.60;84.30;;;;;;5013335;28;20477;-76
2022/08/03 11:57:40;;;;;;;3.13;2.00;;;33.90;83.80;;;;;;5013694;28;20450;-76
2022/08/03 12:00:24;;;;;;;9.90;2.30;;;33.90;82.70;;;;;;5013375;28;20450;-75
2022/08/03 12:03:02;;;;;;;4.60;2.03;;;33.90;83.20;;;;;;5012129;28;20464;-76
2022/08/03 12:05:50;;;;;;;3.80;2.20;;;34.00;81.00;;;;;;5013245;28;20996;-76
2022/08/03 12:08:18;;;;;;;5.13;2.30;;;34.00;81.50;;;;;;5010564;28;20461;-76
2022/08/03 12:10:50;;;;;;;3.63;2.03;;;33.90;82.20;;;;;;5012865;28;20522;-76
2022/08/03 12:13:17;;;;;;;7.73;2.10;;;33.90;81.90;;;;;;5013024;28;20486;-75
2022/08/03 12:15:50;;;;;;;3.97;2.20;;;33.90;81.40;;;;;;5012924;28;20496;-76
2022/08/03 12:18:19;;;;;;;2.80;2.20;;;34.20;80.90;;;;;;5013293;28;20466;-76
2022/08/03 12:20:46;;;;;;;1.93;1.83;;;34.10;80.90;;;;;;5012767;28;20497;-76
2022/08/03 12:23:13;;;;;;;2.63;2.20;;;34.20;80.50;;;;;;5013135;28;20442;-76
2022/08/03 12:25:42;;;;;;;2.37;2.17;;;34.00;79.80;;;;;;5013075;28;20446;-76
2022/08/03 12:28:18;;;;;;;2.30;2.20;;;33.90;80.20;;;;;;5012968;28;20454;-76
2022/08/03 12:30:48;;;;;;;4.30;2.30;;;33.70;80.60;;;;;;5012949;28;20469;-76
2022/08/03 12:33:20;;;;;;;4.37;1.83;;;33.40;81.20;;;;;;5012939;28;20540;-76
2022/08/03 12:35:49;;;;;;;5.07;2.40;;;33.50;81.10;;;;;;5012956;28;20465;-76
2022/08/03 12:38:20;;;;;;;3.97;2.10;;;34.00;80.60;;;;;;5012682;28;20850;-76
2022/08/03 12:40:56;;;;;;;2.37;2.17;;;34.20;79.90;;;;;;5012363;28;20894;-76
2022/08/03 12:43:22;;;;;;;2.20;2.10;;;34.20;78.70;;;;;;5012647;28;21011;-76
2022/08/03 12:45:50;;;;;;;2.80;1.90;;;34.10;79.10;;;;;;5012668;28;20477;-76
2022/08/03 12:48:17;;;;;;;2.53;2.33;;;34.20;79.50;;;;;;5012700;28;20458;-76
2022/08/03 12:50:44;;;;;;;2.33;2.07;;;34.20;79.00;;;;;;5012208;28;20474;-76
2022/08/03 12:53:10;;;;;;;6.10;2.30;;;34.40;79.50;;;;;;5012423;28;20527;-76
2022/08/03 12:55:38;;;;;;;4.10;2.00;;;34.40;79.10;;;;;;5012518;28;20454;-76
2022/08/03 12:58:09;;;;;;;3.10;1.93;;;34.40;78.50;;;;;;5012538;28;20455;-76
2022/08/03 13:00:36;;;;;;;4.60;2.27;;;34.30;78.80;;;;;;5012134;28;20528;-76
2022/08/03 13:03:06;;;;;;;2.30;2.00;;;34.10;77.90;;;;;;5012388;28;20938;-76
2022/08/03 13:05:42;;;;;;;2.23;2.07;;;34.10;78.10;;;;;;5012293;28;20454;-76
2022/08/03 13:08:19;;;;;;;2.40;2.20;;;34.20;77.90;;;;;;5012136;28;20453;-76
2022/08/03 13:10:46;;;;;;;3.33;2.30;;;34.40;78.00;;;;;;4992284;28;20463;-76